Time;durP1;ratioP1;P1;durP2;ratioP2;P2;SDS_P1;SDS_P2;PMS_P1;PMS_P2;Temp;Humidity;BMP_temperature;BMP_pressure;BME280_temperature;BME280_humidity;BME280_pressure;Samples;Min_cycle;Max_cycle;Signal;HPM_P1;HPM_P2
2022/05/05 00:02:01;;;;;;;6.57;5.97;;;;;;;;;;5076710;28;20811;-63
2022/05/05 00:04:27;;;;;;;6.43;5.93;;;;;;;;;;5076661;28;20406;-62
2022/05/05 00:06:56;;;;;;;6.13;5.73;;;;;;;;;;5076391;28;20492;-62
2022/05/05 00:09:22;;;;;;;6.70;6.40;;;;;;;;;;5076558;28;20460;-61
2022/05/05 00:14:33;;;;;;;7.30;6.70;;;;;;;;;;5076432;28;20397;-62
2022/05/05 00:17:02;;;;;;;6.80;6.60;;;;;;;;;;5076487;28;20398;-62
2022/05/05 00:19:28;;;;;;;6.23;5.93;;;;;;;;;;5076379;28;20534;-62
2022/05/05 00:21:54;;;;;;;6.73;6.43;;;;;;;;;;5076276;28;20510;-62
2022/05/05 00:24:23;;;;;;;6.60;6.30;;;;;;;;;;5076523;28;20406;-62
2022/05/05 00:26:49;;;;;;;6.70;6.37;;;;;;;;;;5076251;28;20473;-63
2022/05/05 00:29:18;;;;;;;6.37;5.90;;;;;;;;;;5076217;28;20402;-63
2022/05/05 00:31:44;;;;;;;6.00;5.60;;;;;;;;;;5076160;28;20878;-63
2022/05/05 00:34:11;;;;;;;6.13;5.83;;;;;;;;;;5076202;28;20481;-63
2022/05/05 00:36:37;;;;;;;6.43;6.00;;;;;;;;;;5076077;28;20475;-62
2022/05/05 00:39:03;;;;;;;6.40;6.00;;;;;;;;;;5075852;28;20402;-62
2022/05/05 00:41:33;;;;;;;6.67;6.37;;;;;;;;;;5076016;28;20411;-63
2022/05/05 00:43:59;;;;;;;7.33;6.93;;;;;;;;;;5076012;28;20441;-63
2022/05/05 00:46:25;;;;;;;7.40;7.00;;;;;;;;;;5075790;28;20900;-63
2022/05/05 00:48:51;;;;;;;6.80;6.30;;;;;;;;;;5073481;28;20438;-62
2022/05/05 00:51:17;;;;;;;6.60;6.30;;;;;;;;;;5075745;28;20444;-62
2022/05/05 00:53:43;;;;;;;7.30;7.00;;;;;;;;;;5075680;28;20402;-63
2022/05/05 00:56:14;;;;;;;7.83;6.90;;;;;;;;;;5074483;28;20437;-62
2022/05/05 00:58:42;;;;;;;7.83;7.40;;;;;;;;;;5076018;28;20753;-63
2022/05/05 01:01:09;;;;;;;7.60;7.00;;;;;;;;;;5075716;28;20471;-62
2022/05/05 01:03:36;;;;;;;6.50;6.17;;;;;;;;;;5075631;28;20405;-64
2022/05/05 01:06:02;;;;;;;5.63;5.23;;;;;;;;;;5075568;28;20426;-63
2022/05/05 01:08:29;;;;;;;6.30;6.10;;;;;;;;;;5075406;28;20561;-63
2022/05/05 01:10:55;;;;;;;7.27;6.60;;;;;;;;;;5075692;28;20403;-63
2022/05/05 01:13:21;;;;;;;6.73;6.43;;;;;;;;;;5075616;28;20463;-63
2022/05/05 01:15:47;;;;;;;7.10;6.80;;;;;;;;;;5075329;28;20394;-62
2022/05/05 01:18:13;;;;;;;7.07;6.67;;;;;;;;;;5075266;28;20755;-62
2022/05/05 01:20:46;;;;;;;7.30;7.00;;;;;;;;;;5075211;28;20402;-62
2022/05/05 01:23:13;;;;;;;7.87;7.47;;;;;;;;;;5073900;28;20521;-62
2022/05/05 01:28:24;;;;;;;7.67;7.33;;;;;;;;;;5074994;28;20472;-63
2022/05/05 01:30:50;;;;;;;8.63;8.13;;;;;;;;;;5075048;28;20413;-64
2022/05/05 01:33:21;;;;;;;8.50;7.90;;;;;;;;;;5073727;28;20429;-65
2022/05/05 01:35:47;;;;;;;8.80;8.30;;;;;;;;;;5074928;28;20817;-63
2022/05/05 01:38:15;;;;;;;8.10;7.40;;;;;;;;;;5074877;28;20423;-62
2022/05/05 01:40:41;;;;;;;8.77;8.17;;;;;;;;;;5073368;28;20912;-62
2022/05/05 01:43:08;;;;;;;7.70;7.30;;;;;;;;;;5074864;28;20395;-62
2022/05/05 01:45:34;;;;;;;8.33;7.53;;;;;;;;;;5074708;28;20410;-63
2022/05/05 01:48:00;;;;;;;8.43;7.93;;;;;;;;;;5074578;28;20477;-63
2022/05/05 01:50:26;;;;;;;8.03;7.43;;;;;;;;;;5074659;28;20757;-63
2022/05/05 01:52:55;;;;;;;8.40;7.70;;;;;;;;;;5074506;28;20418;-63
2022/05/05 01:55:21;;;;;;;9.33;7.17;;;;;;;;;;5074535;28;20571;-63
2022/05/05 01:57:47;;;;;;;7.80;7.33;;;;;;;;;;5074501;28;20443;-63
2022/05/05 02:00:14;;;;;;;8.47;7.87;;;;;;;;;;5074153;28;20407;-62
2022/05/05 02:02:40;;;;;;;7.40;7.10;;;;;;;;;;5074464;28;20395;-63
2022/05/05 02:05:06;;;;;;;7.60;6.90;;;;;;;;;;5074302;28;20412;-63
2022/05/05 02:07:34;;;;;;;7.37;6.97;;;;;;;;;;5074177;28;20474;-63
2022/05/05 02:10:03;;;;;;;7.20;6.90;;;;;;;;;;5074258;28;20480;-62
2022/05/05 02:12:30;;;;;;;8.63;7.97;;;;;;;;;;5074236;28;20417;-63
2022/05/05 02:14:57;;;;;;;8.80;8.30;;;;;;;;;;5074121;28;20402;-63
2022/05/05 02:17:23;;;;;;;9.80;9.10;;;;;;;;;;5072819;28;20418;-62
2022/05/05 02:19:49;;;;;;;9.40;7.83;;;;;;;;;;5074157;28;20456;-63
2022/05/05 02:22:15;;;;;;;8.27;7.70;;;;;;;;;;5073903;28;20905;-63
2022/05/05 02:24:41;;;;;;;8.13;7.63;;;;;;;;;;5074225;28;20501;-66
2022/05/05 02:27:08;;;;;;;9.60;8.80;;;;;;;;;;5073977;28;20820;-63
2022/05/05 02:29:34;;;;;;;8.57;8.13;;;;;;;;;;5073773;28;20403;-63
2022/05/05 02:32:00;;;;;;;9.47;8.67;;;;;;;;;;5073943;28;20411;-63
2022/05/05 02:34:26;;;;;;;8.57;8.17;;;;;;;;;;5072559;28;20411;-63
2022/05/05 02:39:39;;;;;;;9.40;8.80;;;;;;;;;;5073638;28;20511;-64
2022/05/05 02:42:06;;;;;;;8.97;8.27;;;;;;;;;;5073722;28;20422;-63
2022/05/05 02:44:32;;;;;;;10.53;9.53;;;;;;;;;;5073739;28;20436;-63
2022/05/05 02:46:59;;;;;;;10.03;9.43;;;;;;;;;;5073550;28;20952;-63
2022/05/05 02:49:27;;;;;;;9.40;8.80;;;;;;;;;;5073672;28;20488;-63
2022/05/05 02:51:53;;;;;;;9.03;8.40;;;;;;;;;;5073519;28;20410;-62
2022/05/05 02:57:04;;;;;;;8.77;8.17;;;;;;;;;;5073555;28;20459;-64
2022/05/05 02:59:30;;;;;;;7.90;7.40;;;;;;;;;;5073478;28;20891;-63
2022/05/05 03:01:56;;;;;;;9.77;9.03;;;;;;;;;;5073849;28;20456;-63
2022/05/05 03:04:22;;;;;;;10.70;9.77;;;;;;;;;;5073455;28;20402;-63
2022/05/05 03:06:48;;;;;;;9.50;8.90;;;;;;;;;;5073345;28;20464;-63
2022/05/05 03:09:14;;;;;;;8.90;8.30;;;;;;;;;;5073439;28;20421;-62
2022/05/05 03:11:39;;;;;;;8.50;7.90;;;;;;;;;;5073029;28;20463;-63
2022/05/05 03:14:05;;;;;;;9.83;9.13;;;;;;;;;;5073437;28;20433;-63
2022/05/05 03:16:31;;;;;;;9.47;8.83;;;;;;;;;;5073371;28;20394;-63
2022/05/05 03:18:57;;;;;;;9.80;9.00;;;;;;;;;;5073386;28;20467;-63
2022/05/05 03:21:23;;;;;;;9.50;8.87;;;;;;;;;;5071937;28;20901;-63
2022/05/05 03:23:49;;;;;;;8.57;8.07;;;;;;;;;;5073308;28;20786;-63
2022/05/05 03:26:15;;;;;;;9.60;8.60;;;;;;;;;;5073558;28;20461;-63
2022/05/05 03:28:41;;;;;;;8.73;8.23;;;;;;;;;;5071907;28;20477;-63
2022/05/05 03:31:07;;;;;;;9.90;9.20;;;;;;;;;;5073477;28;20812;-63
2022/05/05 03:33:34;;;;;;;8.10;7.53;;;;;;;;;;5073145;28;20406;-62
2022/05/05 03:36:00;;;;;;;12.30;11.30;;;;;;;;;;5073164;28;20447;-63
2022/05/05 03:38:26;;;;;;;14.70;13.30;;;;;;;;;;5073050;28;20406;-62
2022/05/05 03:40:52;;;;;;;14.27;12.97;;;;;;;;;;5072960;28;20477;-63
2022/05/05 03:43:18;;;;;;;13.20;12.07;;;;;;;;;;5073346;28;20410;-63
2022/05/05 03:45:44;;;;;;;10.90;9.90;;;;;;;;;;5073068;28;20398;-64
2022/05/05 03:48:10;;;;;;;10.70;10.00;;;;;;;;;;5072963;28;20487;-62
2022/05/05 03:50:36;;;;;;;10.27;9.33;;;;;;;;;;5072978;28;20409;-63
2022/05/05 03:53:03;;;;;;;10.10;9.30;;;;;;;;;;5072956;28;20429;-63
2022/05/05 03:55:29;;;;;;;9.33;8.77;;;;;;;;;;5072936;28;20409;-63
2022/05/05 03:57:55;;;;;;;7.93;7.53;;;;;;;;;;5073258;28;20410;-63
2022/05/05 04:00:22;;;;;;;8.13;7.63;;;;;;;;;;5072916;28;20390;-63
2022/05/05 04:03:30;;;;;;;9.30;8.80;;;;;;;;;;5073228;28;20406;-65
2022/05/05 04:05:35;;;;;;;9.83;9.20;;;;;;;;;;5072876;28;20418;-65
2022/05/05 04:08:04;;;;;;;10.13;9.20;;;;;;;;;;5072834;28;20490;-63
2022/05/05 04:10:30;;;;;;;9.23;8.43;;;;;;;;;;5072751;28;20402;-63
2022/05/05 04:12:57;;;;;;;9.20;8.50;;;;;;;;;;5072891;28;20886;-62
2022/05/05 04:15:23;;;;;;;8.50;8.10;;;;;;;;;;5072857;28;20901;-62
2022/05/05 04:17:49;;;;;;;9.40;8.90;;;;;;;;;;5072852;28;20463;-63
2022/05/05 04:20:15;;;;;;;48.77;40.10;;;;;;;;;;5072741;28;20441;-63
2022/05/05 04:22:41;;;;;;;26.13;20.67;;;;;;;;;;5072633;28;20446;-63
2022/05/05 04:25:08;;;;;;;10.63;8.70;;;;;;;;;;5075958;28;20403;-63
2022/05/05 04:27:34;;;;;;;9.93;9.07;;;;;;;;;;5076162;28;20518;-62
2022/05/05 04:30:00;;;;;;;16.07;8.70;;;;;;;;;;5076232;28;20414;-62
2022/05/05 04:32:26;;;;;;;7.50;7.10;;;;;;;;;;5076377;28;20406;-62
2022/05/05 04:34:53;;;;;;;8.43;8.03;;;;;;;;;;5076172;28;20911;-62
2022/05/05 04:37:19;;;;;;;8.70;8.10;;;;;;;;;;5076029;28;20436;-63
2022/05/05 04:39:45;;;;;;;9.00;8.30;;;;;;;;;;5075779;28;20548;-62
2022/05/05 04:42:11;;;;;;;8.83;8.33;;;;;;;;;;5076023;28;20422;-63
2022/05/05 04:44:37;;;;;;;7.97;7.57;;;;;;;;;;5074622;28;20839;-62
2022/05/05 04:47:03;;;;;;;8.70;8.10;;;;;;;;;;5075795;28;20458;-62
2022/05/05 04:49:31;;;;;;;7.90;7.50;;;;;;;;;;5075799;28;20489;-62
2022/05/05 04:51:57;;;;;;;10.90;8.00;;;;;;;;;;5075705;28;20406;-62
2022/05/05 04:54:23;;;;;;;8.63;8.03;;;;;;;;;;5075689;28;20414;-62
2022/05/05 04:56:49;;;;;;;9.73;8.97;;;;;;;;;;5075784;28;20411;-62
2022/05/05 04:59:15;;;;;;;11.80;10.60;;;;;;;;;;5075815;28;20409;-62
2022/05/05 05:01:41;;;;;;;13.97;9.90;;;;;;;;;;5075624;28;20512;-62
2022/05/05 05:04:07;;;;;;;15.50;9.57;;;;;;;;;;5075787;28;20443;-62
2022/05/05 05:06:34;;;;;;;12.67;10.07;;;;;;;;;;5075654;28;20413;-62
2022/05/05 05:09:00;;;;;;;10.93;9.93;;;;;;;;;;5075766;28;20501;-63
2022/05/05 05:11:27;;;;;;;11.50;10.40;;;;;;;;;;5075382;28;20403;-63
2022/05/05 05:13:53;;;;;;;12.53;11.37;;;;;;;;;;5075709;28;20812;-62
2022/05/05 05:16:19;;;;;;;10.33;9.57;;;;;;;;;;5075330;28;20421;-62
2022/05/05 05:18:47;;;;;;;10.27;9.47;;;;;;;;;;5075361;28;20493;-65
2022/05/05 05:21:13;;;;;;;16.90;11.40;;;;;;;;;;5075524;28;20501;-64
2022/05/05 05:23:39;;;;;;;11.63;9.50;;;;;;;;;;5075099;28;20430;-61
2022/05/05 05:26:04;;;;;;;9.77;8.97;;;;;;;;;;5075133;28;20414;-67
2022/05/05 05:28:30;;;;;;;10.53;9.93;;;;;;;;;;5074988;28;20492;-66
2022/05/05 05:30:56;;;;;;;9.23;8.67;;;;;;;;;;5073769;28;20509;-64
2022/05/05 05:33:22;;;;;;;11.90;9.90;;;;;;;;;;5075015;28;20418;-62
2022/05/05 05:35:48;;;;;;;9.40;8.70;;;;;;;;;;5074300;28;20406;-64
2022/05/05 05:38:14;;;;;;;10.47;9.67;;;;;;;;;;5074779;28;20422;-64
2022/05/05 05:40:40;;;;;;;9.13;8.40;;;;;;;;;;5074559;28;20476;-62
2022/05/05 05:43:06;;;;;;;10.17;9.37;;;;;;;;;;5075050;28;20417;-65
2022/05/05 05:45:32;;;;;;;10.83;10.03;;;;;;;;;;5074799;28;20405;-65
2022/05/05 05:47:58;;;;;;;11.00;9.83;;;;;;;;;;5074577;28;20499;-64
2022/05/05 05:50:25;;;;;;;9.50;8.80;;;;;;;;;;5074727;28;20394;-65
2022/05/05 05:52:51;;;;;;;10.57;9.60;;;;;;;;;;5074449;28;20802;-63
2022/05/05 05:55:18;;;;;;;11.30;10.43;;;;;;;;;;5074439;28;20944;-64
2022/05/05 05:57:44;;;;;;;10.50;9.43;;;;;;;;;;5074697;28;20409;-66
2022/05/05 06:00:11;;;;;;;11.80;10.90;;;;;;;;;;5074456;28;20406;-63
2022/05/05 06:05:21;;;;;;;12.13;11.13;;;;;;;;;;5074609;28;20946;-61
2022/05/05 06:07:48;;;;;;;13.50;10.70;;;;;;;;;;5074236;28;20469;-61
2022/05/05 06:10:14;;;;;;;10.93;10.13;;;;;;;;;;5074372;28;20758;-62
2022/05/05 06:12:40;;;;;;;11.73;10.83;;;;;;;;;;5074273;28;20418;-62
2022/05/05 06:15:06;;;;;;;12.80;11.70;;;;;;;;;;5072871;28;20426;-62
2022/05/05 06:17:34;;;;;;;12.17;11.17;;;;;;;;;;5074093;28;20497;-61
2022/05/05 06:20:00;;;;;;;14.83;11.10;;;;;;;;;;5074351;28;20410;-62
2022/05/05 06:22:26;;;;;;;14.20;12.10;;;;;;;;;;5074022;28;20532;-63
2022/05/05 06:24:52;;;;;;;11.90;11.00;;;;;;;;;;5073979;28;20424;-62
2022/05/05 06:27:18;;;;;;;12.17;11.37;;;;;;;;;;5073867;28;20457;-61
2022/05/05 06:29:44;;;;;;;11.53;10.73;;;;;;;;;;5073865;28;20418;-62
2022/05/05 06:32:11;;;;;;;11.00;10.20;;;;;;;;;;5073820;28;20403;-60
2022/05/05 06:34:37;;;;;;;13.20;11.90;;;;;;;;;;5073902;28;20434;-62
2022/05/05 06:37:03;;;;;;;13.00;11.70;;;;;;;;;;5073743;28;20776;-62
2022/05/05 06:39:29;;;;;;;13.43;12.30;;;;;;;;;;5073648;28;20548;-62
2022/05/05 06:41:55;;;;;;;13.67;12.57;;;;;;;;;;5073747;28;20465;-62
2022/05/05 06:44:21;;;;;;;18.27;14.30;;;;;;;;;;5073651;28;20972;-62
2022/05/05 06:46:47;;;;;;;14.30;12.90;;;;;;;;;;5072810;28;20461;-62
2022/05/05 06:49:13;;;;;;;15.80;14.30;;;;;;;;;;5073674;28;20442;-62
2022/05/05 06:51:39;;;;;;;15.40;12.80;;;;;;;;;;5073864;28;20425;-61
2022/05/05 06:54:05;;;;;;;15.10;13.60;;;;;;;;;;5073489;28;20767;-61
2022/05/05 06:56:31;;;;;;;15.60;14.13;;;;;;;;;;5073559;28;20413;-63
2022/05/05 06:58:57;;;;;;;13.90;12.50;;;;;;;;;;5073786;28;20500;-63
2022/05/05 07:06:52;;;;;;;12.37;11.23;;;;;;;;;;5073359;28;20472;-62
2022/05/05 07:12:03;;;;;;;12.47;11.47;;;;;;;;;;5073436;28;20397;-62
2022/05/05 07:14:31;;;;;;;12.60;11.60;;;;;;;;;;5073299;28;20455;-62
2022/05/05 07:16:57;;;;;;;13.87;12.67;;;;;;;;;;5073294;28;20402;-61
2022/05/05 07:19:23;;;;;;;12.90;11.80;;;;;;;;;;5073279;28;20417;-60
2022/05/05 07:21:49;;;;;;;14.20;12.80;;;;;;;;;;5073273;28;20472;-65
2022/05/05 07:24:15;;;;;;;13.97;12.10;;;;;;;;;;5073202;28;20786;-61
2022/05/05 07:26:41;;;;;;;13.40;11.67;;;;;;;;;;5073226;28;20501;-62
2022/05/05 07:29:08;;;;;;;13.87;12.47;;;;;;;;;;5073213;28;20768;-62
2022/05/05 07:31:34;;;;;;;14.23;12.87;;;;;;;;;;5073246;28;20442;-61
2022/05/05 07:34:00;;;;;;;14.70;13.30;;;;;;;;;;5071984;28;20426;-61
2022/05/05 07:36:26;;;;;;;14.50;13.00;;;;;;;;;;5073064;28;20418;-61
2022/05/05 07:38:52;;;;;;;13.53;12.20;;;;;;;;;;5073158;28;20467;-61
2022/05/05 07:41:18;;;;;;;14.23;13.13;;;;;;;;;;5072875;28;20473;-62
2022/05/05 07:43:44;;;;;;;13.70;12.40;;;;;;;;;;5073004;28;20420;-64
2022/05/05 07:46:10;;;;;;;13.83;12.67;;;;;;;;;;5072958;28;20501;-62
2022/05/05 07:48:36;;;;;;;17.67;14.33;;;;;;;;;;5071739;28;20477;-62
2022/05/05 07:51:02;;;;;;;15.93;13.23;;;;;;;;;;5072897;28;20409;-62
2022/05/05 07:53:28;;;;;;;15.80;14.50;;;;;;;;;;5072987;28;20448;-61
2022/05/05 07:55:54;;;;;;;14.20;13.10;;;;;;;;;;5072918;28;20877;-62
2022/05/05 07:58:20;;;;;;;16.67;14.97;;;;;;;;;;5073626;28;20406;-62
2022/05/05 08:00:46;;;;;;;16.90;13.30;;;;;;;;;;5076774;28;20413;-61
2022/05/05 08:03:13;;;;;;;17.03;15.47;;;;;;;;;;5076702;28;20434;-62
2022/05/05 08:05:39;;;;;;;19.00;16.63;;;;;;;;;;5076549;28;20811;-63
2022/05/05 08:08:05;;;;;;;18.07;16.37;;;;;;;;;;5076492;28;20507;-62
2022/05/05 08:10:32;;;;;;;19.00;17.10;;;;;;;;;;5076572;28;20880;-63
2022/05/05 08:12:57;;;;;;;17.87;16.10;;;;;;;;;;5076859;28;20485;-62
2022/05/05 08:15:23;;;;;;;19.80;17.73;;;;;;;;;;5076611;28;20908;-62
2022/05/05 08:17:49;;;;;;;27.43;18.13;;;;;;;;;;5076402;28;20421;-62
2022/05/05 08:20:16;;;;;;;19.27;17.50;;;;;;;;;;5076339;28;20405;-62
2022/05/05 08:22:42;;;;;;;17.90;16.13;;;;;;;;;;5076293;28;20459;-61
2022/05/05 08:30:39;;;;;;;18.63;16.53;;;;;;;;;;5076530;28;20413;-63
2022/05/05 08:33:05;;;;;;;20.60;18.30;;;;;;;;;;5076101;28;20395;-64
2022/05/05 08:35:31;;;;;;;19.10;16.83;;;;;;;;;;5074826;28;20418;-60
2022/05/05 08:37:58;;;;;;;18.20;16.03;;;;;;;;;;5076049;28;20409;-61
2022/05/05 08:40:24;;;;;;;17.03;14.00;;;;;;;;;;5074649;28;20466;-61
2022/05/05 08:42:50;;;;;;;19.20;16.80;;;;;;;;;;5076054;28;20405;-61
2022/05/05 08:45:17;;;;;;;16.80;15.03;;;;;;;;;;5075932;28;20402;-65
2022/05/05 08:47:45;;;;;;;17.50;15.70;;;;;;;;;;5075741;28;20481;-61
2022/05/05 08:50:11;;;;;;;15.63;14.13;;;;;;;;;;5075827;28;20406;-61
2022/05/05 08:52:45;;;;;;;16.07;14.10;;;;;;;;;;5075798;28;20812;-60
2022/05/05 08:55:18;;;;;;;16.80;14.93;;;;;;;;;;5075793;28;20898;-65
2022/05/05 08:57:45;;;;;;;20.27;14.00;;;;;;;;;;5075610;28;20432;-62
2022/05/05 09:00:13;;;;;;;15.10;13.70;;;;;;;;;;5074286;28;20943;-64
2022/05/05 09:02:39;;;;;;;19.33;15.80;;;;;;;;;;5075815;28;20402;-63
2022/05/05 09:05:05;;;;;;;15.57;14.07;;;;;;;;;;5075451;28;20870;-63
2022/05/05 09:07:51;;;;;;;16.03;14.23;;;;;;;;;;5075557;28;20469;-64
2022/05/05 09:10:18;;;;;;;15.20;13.70;;;;;;;;;;5074482;28;20410;-63
2022/05/05 09:13:00;;;;;;;18.10;15.87;;;;;;;;;;5075681;28;20410;-64
2022/05/05 09:15:33;;;;;;;16.20;14.57;;;;;;;;;;5075520;28;20795;-63
2022/05/05 09:18:17;;;;;;;18.43;14.97;;;;;;;;;;5075537;28;20410;-64
2022/05/05 09:20:44;;;;;;;15.80;14.20;;;;;;;;;;5075210;28;20881;-62
2022/05/05 09:23:26;;;;;;;18.17;15.07;;;;;;;;;;5075121;28;20410;-61
2022/05/05 09:25:52;;;;;;;21.00;16.80;;;;;;;;;;5075271;28;20394;-61
2022/05/05 09:28:22;;;;;;;18.70;15.43;;;;;;;;;;5075037;28;20567;-62
2022/05/05 09:30:48;;;;;;;16.33;14.83;;;;;;;;;;5075034;28;20430;-62
2022/05/05 09:33:18;;;;;;;22.07;15.30;;;;;;;;;;5074985;28;20405;-61
2022/05/05 09:35:45;;;;;;;16.50;13.90;;;;;;;;;;5074988;28;20809;-62
2022/05/05 09:38:11;;;;;;;23.57;16.53;;;;;;;;;;5075104;28;20437;-62
2022/05/05 09:40:37;;;;;;;17.87;15.97;;;;;;;;;;5074607;28;20462;-61
2022/05/05 09:43:03;;;;;;;19.73;16.23;;;;;;;;;;5074862;28;20402;-64
2022/05/05 09:45:32;;;;;;;28.17;16.60;;;;;;;;;;5074760;28;20750;-64
2022/05/05 09:47:58;;;;;;;20.87;16.40;;;;;;;;;;5074623;28;20990;-62
2022/05/05 09:50:25;;;;;;;23.43;17.70;;;;;;;;;;5074910;28;20398;-61
2022/05/05 09:58:24;;;;;;;17.93;16.17;;;;;;;;;;5074789;28;20401;-62
2022/05/05 10:01:05;;;;;;;20.63;18.23;;;;;;;;;;5074477;28;20400;-61
2022/05/05 10:06:22;;;;;;;18.17;16.07;;;;;;;;;;5074349;28;20441;-62
2022/05/05 10:08:50;;;;;;;22.07;16.07;;;;;;;;;;5074270;28;20462;-62
2022/05/05 10:11:16;;;;;;;21.27;16.03;;;;;;;;;;5074216;28;20485;-61
2022/05/05 10:13:42;;;;;;;18.60;16.60;;;;;;;;;;5074293;28;20406;-62
2022/05/05 10:16:09;;;;;;;17.93;16.10;;;;;;;;;;5074230;28;20403;-62
2022/05/05 10:18:38;;;;;;;17.73;15.80;;;;;;;;;;5074191;28;20406;-63
2022/05/05 10:21:05;;;;;;;19.77;17.63;;;;;;;;;;5073929;28;20390;-61
2022/05/05 10:23:50;;;;;;;23.00;16.17;;;;;;;;;;5073945;28;20408;-64
2022/05/05 10:26:21;;;;;;;18.00;15.80;;;;;;;;;;5073749;28;20411;-63
2022/05/05 10:28:50;;;;;;;18.07;16.10;;;;;;;;;;5074041;28;20822;-62
2022/05/05 10:31:31;;;;;;;21.47;16.40;;;;;;;;;;5073905;28;20886;-62
2022/05/05 10:34:14;;;;;;;18.50;16.53;;;;;;;;;;5073853;28;20399;-62
2022/05/05 10:36:40;;;;;;;18.47;15.40;;;;;;;;;;5073803;28;20901;-61
2022/05/05 10:39:19;;;;;;;21.23;18.40;;;;;;;;;;5072383;28;20418;-62
2022/05/05 10:41:45;;;;;;;23.07;17.40;;;;;;;;;;5074167;28;20822;-62
2022/05/05 10:44:14;;;;;;;20.40;18.33;;;;;;;;;;5073950;28;20418;-61
2022/05/05 10:47:01;;;;;;;18.07;16.23;;;;;;;;;;5073535;28;20406;-62
2022/05/05 10:49:33;;;;;;;21.33;17.40;;;;;;;;;;5073663;28;20448;-61
2022/05/05 10:52:11;;;;;;;19.40;17.60;;;;;;;;;;5073630;28;20414;-62
2022/05/05 10:54:42;;;;;;;20.87;18.03;;;;;;;;;;5073846;28;20409;-62
2022/05/05 10:57:25;;;;;;;24.00;17.97;;;;;;;;;;5073861;28;20414;-62
2022/05/05 11:00:10;;;;;;;20.80;18.53;;;;;;;;;;5073796;28;20770;-62
2022/05/05 11:02:37;;;;;;;19.63;17.60;;;;;;;;;;5073414;28;20943;-61
2022/05/05 11:05:22;;;;;;;20.37;17.30;;;;;;;;;;5073283;28;20407;-62
2022/05/05 11:07:51;;;;;;;22.90;18.30;;;;;;;;;;5073325;28;20519;-62
2022/05/05 11:10:36;;;;;;;23.50;17.73;;;;;;;;;;5073639;28;20386;-62
2022/05/05 11:13:02;;;;;;;19.03;17.03;;;;;;;;;;5073415;28;20407;-61
2022/05/05 11:21:33;;;;;;;23.10;18.03;;;;;;;;;;5073307;28;20401;-61
2022/05/05 11:24:00;;;;;;;18.97;16.97;;;;;;;;;;5073558;28;20399;-62
2022/05/05 11:26:27;;;;;;;25.67;18.03;;;;;;;;;;5073526;28;20413;-62
2022/05/05 11:28:53;;;;;;;20.93;17.27;;;;;;;;;;5073272;28;20470;-62
2022/05/05 11:31:20;;;;;;;24.30;18.37;;;;;;;;;;5073445;28;20439;-62
2022/05/05 11:33:52;;;;;;;20.80;18.60;;;;;;;;;;5074762;28;20403;-61
2022/05/05 11:36:18;;;;;;;22.20;17.80;;;;;;;;;;5077258;28;20390;-61
2022/05/05 11:38:44;;;;;;;20.20;18.10;;;;;;;;;;5077481;28;20834;-61
2022/05/05 11:41:11;;;;;;;21.43;19.13;;;;;;;;;;5077055;28;20469;-62
2022/05/05 11:46:21;;;;;;;26.47;18.80;;;;;;;;;;5077165;28;20460;-61
2022/05/05 11:48:55;;;;;;;20.57;17.83;;;;;;;;;;5077226;28;20470;-61
2022/05/05 11:51:21;;;;;;;26.77;18.87;;;;;;;;;;5077252;28;20402;-65
2022/05/05 11:53:47;;;;;;;20.20;18.07;;;;;;;;;;5077253;28;20429;-64
2022/05/05 11:56:13;;;;;;;21.43;17.40;;;;;;;;;;5076991;28;20836;-64
2022/05/05 12:01:38;;;;;;;19.83;17.83;;;;;;;;;;5076780;28;20471;-61
2022/05/05 12:04:05;;;;;;;21.30;19.10;;;;;;;;;;5075441;28;20520;-65
2022/05/05 12:06:31;;;;;;;21.83;19.43;;;;;;;;;;5076666;28;20823;-65
2022/05/05 12:08:58;;;;;;;19.67;17.17;;;;;;;;;;5076565;28;20467;-65
2022/05/05 12:11:28;;;;;;;23.70;18.80;;;;;;;;;;5076491;28;20866;-62
2022/05/05 12:14:01;;;;;;;21.77;18.50;;;;;;;;;;5076587;28;20412;-62
2022/05/05 12:16:31;;;;;;;24.10;18.37;;;;;;;;;;5076732;28;20414;-61
2022/05/05 12:18:58;;;;;;;22.80;18.67;;;;;;;;;;5076735;28;20399;-64
2022/05/05 12:21:25;;;;;;;24.33;17.43;;;;;;;;;;5076548;28;20799;-65
2022/05/05 12:23:59;;;;;;;24.13;18.50;;;;;;;;;;5076621;28;20416;-64
2022/05/05 12:26:32;;;;;;;23.77;17.97;;;;;;;;;;5076546;28;20440;-62
2022/05/05 12:28:59;;;;;;;20.33;15.93;;;;;;;;;;5076344;28;20938;-64
2022/05/05 12:31:26;;;;;;;19.50;16.50;;;;;;;;;;5076231;28;20453;-63
2022/05/05 12:33:52;;;;;;;20.90;18.40;;;;;;;;;;5076441;28;20406;-64
2022/05/05 12:36:18;;;;;;;23.30;19.03;;;;;;;;;;5076117;28;20483;-64
2022/05/05 12:38:44;;;;;;;22.20;16.70;;;;;;;;;;5076088;28;20826;-64
2022/05/05 12:41:10;;;;;;;21.20;18.03;;;;;;;;;;5075817;28;20538;-64
2022/05/05 12:43:37;;;;;;;30.87;19.57;;;;;;;;;;5076102;28;20413;-64
2022/05/05 12:46:03;;;;;;;23.53;18.90;;;;;;;;;;5076013;28;20399;-64
2022/05/05 12:48:29;;;;;;;21.03;18.53;;;;;;;;;;5075869;28;20482;-65
2022/05/05 12:50:55;;;;;;;20.43;17.83;;;;;;;;;;5075901;28;20466;-64
2022/05/05 13:01:40;;;;;;;25.90;20.03;;;;;;;;;;5075914;28;20777;-64
2022/05/05 13:04:09;;;;;;;21.77;19.60;;;;;;;;;;5075608;28;20395;-63
2022/05/05 13:06:35;;;;;;;25.90;20.30;;;;;;;;;;5075744;28;20568;-63
2022/05/05 13:09:01;;;;;;;24.17;19.63;;;;;;;;;;5075348;28;20976;-64
2022/05/05 13:11:27;;;;;;;30.17;20.23;;;;;;;;;;5075450;28;20417;-65
2022/05/05 13:13:54;;;;;;;21.67;19.30;;;;;;;;;;5075725;28;20414;-64
2022/05/05 13:16:20;;;;;;;20.33;17.57;;;;;;;;;;5075366;28;20400;-65
2022/05/05 13:18:46;;;;;;;25.40;18.10;;;;;;;;;;5075414;28;20944;-65
2022/05/05 13:21:12;;;;;;;24.07;17.73;;;;;;;;;;5075301;28;20408;-65
2022/05/05 13:23:38;;;;;;;22.23;18.73;;;;;;;;;;5075626;28;20462;-64
2022/05/05 13:26:04;;;;;;;25.60;19.17;;;;;;;;;;5075182;28;20407;-61
2022/05/05 13:28:31;;;;;;;26.50;20.13;;;;;;;;;;5075117;28;20557;-61
2022/05/05 13:30:57;;;;;;;23.43;18.63;;;;;;;;;;5075148;28;20407;-61
2022/05/05 13:33:23;;;;;;;21.27;18.97;;;;;;;;;;5075099;28;20405;-61
2022/05/05 13:35:50;;;;;;;22.17;19.77;;;;;;;;;;5075062;28;20400;-65
2022/05/05 13:38:16;;;;;;;21.73;18.50;;;;;;;;;;5074794;28;20418;-66
2022/05/05 13:40:42;;;;;;;21.27;19.27;;;;;;;;;;5074677;28;20819;-65
2022/05/05 13:43:08;;;;;;;20.63;18.40;;;;;;;;;;5075187;28;20402;-65
2022/05/05 13:45:34;;;;;;;25.23;21.97;;;;;;;;;;5075024;28;20391;-65
2022/05/05 13:48:00;;;;;;;23.33;20.83;;;;;;;;;;5074625;28;20474;-65
2022/05/05 13:50:26;;;;;;;24.97;22.37;;;;;;;;;;5074789;28;20406;-61
2022/05/05 13:52:52;;;;;;;27.20;21.30;;;;;;;;;;5074396;28;20434;-65
2022/05/05 13:55:18;;;;;;;27.43;21.23;;;;;;;;;;5074651;28;20426;-64
2022/05/05 13:57:44;;;;;;;26.50;22.50;;;;;;;;;;5074395;28;20419;-65
2022/05/05 14:00:13;;;;;;;30.37;24.70;;;;;;;;;;5074715;28;20407;-66
2022/05/05 14:02:40;;;;;;;27.37;22.87;;;;;;;;;;5074410;28;20414;-66
2022/05/05 14:05:06;;;;;;;29.90;24.93;;;;;;;;;;5074602;28;20403;-65
2022/05/05 14:13:02;;;;;;;29.43;26.30;;;;;;;;;;5074284;28;20793;-66
2022/05/05 14:15:28;;;;;;;30.67;27.37;;;;;;;;;;5074402;28;20407;-64
2022/05/05 14:17:54;;;;;;;38.00;30.00;;;;;;;;;;5074200;28;20419;-64
2022/05/05 14:20:22;;;;;;;34.83;29.00;;;;;;;;;;5074037;28;20415;-62
2022/05/05 14:22:48;;;;;;;29.57;26.47;;;;;;;;;;5074327;28;20787;-63
2022/05/05 14:25:14;;;;;;;37.50;32.53;;;;;;;;;;5073983;28;20454;-63
2022/05/05 14:27:41;;;;;;;35.03;30.10;;;;;;;;;;5073791;28;20477;-63
2022/05/05 14:30:07;;;;;;;32.60;28.00;;;;;;;;;;5073811;28;20414;-62
2022/05/05 14:32:33;;;;;;;36.63;29.50;;;;;;;;;;5073799;28;20905;-62
2022/05/05 14:34:59;;;;;;;38.93;28.83;;;;;;;;;;5073900;28;20812;-62
2022/05/05 14:37:25;;;;;;;35.07;29.40;;;;;;;;;;5073763;28;20450;-66
2022/05/05 14:39:51;;;;;;;32.30;28.90;;;;;;;;;;5073604;28;20466;-65
2022/05/05 14:42:17;;;;;;;42.43;31.50;;;;;;;;;;5072504;28;20433;-66
2022/05/05 14:44:43;;;;;;;33.87;29.90;;;;;;;;;;5073587;28;20419;-65
2022/05/05 14:47:10;;;;;;;38.70;30.90;;;;;;;;;;5073677;28;20454;-65
2022/05/05 14:49:37;;;;;;;31.53;27.23;;;;;;;;;;5073689;28;20761;-66
2022/05/05 14:52:03;;;;;;;33.50;30.10;;;;;;;;;;5067961;28;20816;-64
2022/05/05 14:54:29;;;;;;;33.47;29.87;;;;;;;;;;5069951;28;20431;-65
2022/05/05 14:56:56;;;;;;;38.00;29.80;;;;;;;;;;5070616;28;20423;-63
2022/05/05 14:59:22;;;;;;;31.70;28.20;;;;;;;;;;5070827;28;20465;-64
2022/05/05 15:01:48;;;;;;;31.00;27.67;;;;;;;;;;5071160;28;20438;-66
2022/05/05 15:04:14;;;;;;;30.23;27.07;;;;;;;;;;5070765;28;20427;-64
2022/05/05 15:06:40;;;;;;;32.00;28.17;;;;;;;;;;5069402;28;20422;-62
2022/05/05 15:09:06;;;;;;;30.13;27.03;;;;;;;;;;5069974;28;20546;-61
2022/05/05 15:11:35;;;;;;;30.33;26.67;;;;;;;;;;5071276;28;20398;-61
2022/05/05 15:14:01;;;;;;;32.80;28.37;;;;;;;;;;5068504;28;20414;-61
2022/05/05 15:16:27;;;;;;;37.10;33.10;;;;;;;;;;5070572;28;20419;-62
2022/05/05 15:18:54;;;;;;;37.17;33.10;;;;;;;;;;5068551;28;20918;-62
2022/05/05 15:21:20;;;;;;;41.07;34.63;;;;;;;;;;5069567;28;20426;-61
2022/05/05 15:23:46;;;;;;;40.93;34.40;;;;;;;;;;5068671;28;20771;-61
2022/05/05 15:26:13;;;;;;;39.57;31.23;;;;;;;;;;5070595;28;20434;-66
2022/05/05 15:28:42;;;;;;;35.17;29.57;;;;;;;;;;5070634;28;20833;-63